sensor_id;sensor_type;location;lat;lon;timestamp;P1;durP1;ratioP1;P2;durP2;ratioP2
80576;SDS011;69937;52.420;10.538;2023-05-10T00:03:16;5.55;;;3.30;;
80576;SDS011;69937;52.420;10.538;2023-05-10T00:08:16;6.60;;;3.50;;
80576;SDS011;69937;52.420;10.538;2023-05-10T00:13:17;7.97;;;3.67;;
80576;SDS011;69937;52.420;10.538;2023-05-10T00:18:17;4.97;;;3.53;;
80576;SDS011;69937;52.420;10.538;2023-05-10T00:23:19;7.20;;;3.15;;
80576;SDS011;69937;52.420;10.538;2023-05-10T00:28:19;7.43;;;3.55;;
80576;SDS011;69937;52.420;10.538;2023-05-10T00:33:20;6.68;;;3.95;;
80576;SDS011;69937;52.420;10.538;2023-05-10T00:38:20;6.05;;;5.22;;
80576;SDS011;69937;52.420;10.538;2023-05-10T00:43:21;3.63;;;3.10;;
80576;SDS011;69937;52.420;10.538;2023-05-10T00:48:21;5.70;;;3.58;;
80576;SDS011;69937;52.420;10.538;2023-05-10T00:53:22;6.43;;;3.67;;
80576;SDS011;69937;52.420;10.538;2023-05-10T00:58:24;5.43;;;3.75;;
80576;SDS011;69937;52.420;10.538;2023-05-10T01:03:28;9.18;;;3.72;;
80576;SDS011;69937;52.420;10.538;2023-05-10T01:08:29;5.97;;;4.97;;
80576;SDS011;69937;52.420;10.538;2023-05-10T01:13:33;4.78;;;3.67;;
80576;SDS011;69937;52.420;10.538;2023-05-10T01:18:40;5.07;;;3.75;;
80576;SDS011;69937;52.420;10.538;2023-05-10T01:23:45;6.70;;;4.13;;
80576;SDS011;69937;52.420;10.538;2023-05-10T01:34:07;3.70;;;3.20;;
80576;SDS011;69937;52.420;10.538;2023-05-10T01:49:55;4.40;;;3.78;;
80576;SDS011;69937;52.420;10.538;2023-05-10T01:55:00;5.95;;;5.30;;
80576;SDS011;69937;52.420;10.538;2023-05-10T02:00:05;6.30;;;3.50;;
80576;SDS011;69937;52.420;10.538;2023-05-10T02:05:08;6.82;;;4.22;;
80576;SDS011;69937;52.420;10.538;2023-05-10T02:10:11;5.05;;;3.72;;
80576;SDS011;69937;52.420;10.538;2023-05-10T02:15:15;4.82;;;3.58;;
80576;SDS011;69937;52.420;10.538;2023-05-10T02:20:21;4.55;;;3.83;;
80576;SDS011;69937;52.420;10.538;2023-05-10T02:25:23;8.68;;;4.32;;
80576;SDS011;69937;52.420;10.538;2023-05-10T02:30:25;7.68;;;3.78;;
80576;SDS011;69937;52.420;10.538;2023-05-10T02:35:26;5.15;;;3.17;;
80576;SDS011;69937;52.420;10.538;2023-05-10T02:40:28;9.18;;;4.60;;
80576;SDS011;69937;52.420;10.538;2023-05-10T02:45:30;5.82;;;3.95;;
80576;SDS011;69937;52.420;10.538;2023-05-10T02:50:32;7.32;;;4.05;;
80576;SDS011;69937;52.420;10.538;2023-05-10T02:55:35;6.25;;;5.10;;
80576;SDS011;69937;52.420;10.538;2023-05-10T03:00:37;3.92;;;3.53;;
80576;SDS011;69937;52.420;10.538;2023-05-10T03:05:38;5.22;;;4.25;;
80576;SDS011;69937;52.420;10.538;2023-05-10T03:10:46;6.30;;;5.70;;
80576;SDS011;69937;52.420;10.538;2023-05-10T03:15:59;5.18;;;4.63;;
80576;SDS011;69937;52.420;10.538;2023-05-10T03:21:14;4.82;;;4.05;;
80576;SDS011;69937;52.420;10.538;2023-05-10T03:26:19;4.00;;;3.55;;
80576;SDS011;69937;52.420;10.538;2023-05-10T03:31:23;5.97;;;3.88;;
80576;SDS011;69937;52.420;10.538;2023-05-10T03:36:24;5.40;;;4.30;;
80576;SDS011;69937;52.420;10.538;2023-05-10T03:41:24;7.72;;;4.93;;
80576;SDS011;69937;52.420;10.538;2023-05-10T03:46:25;5.57;;;3.78;;
80576;SDS011;69937;52.420;10.538;2023-05-10T03:51:25;5.35;;;4.55;;
80576;SDS011;69937;52.420;10.538;2023-05-10T03:56:27;4.55;;;4.15;;
80576;SDS011;69937;52.420;10.538;2023-05-10T04:01:28;4.80;;;4.10;;
80576;SDS011;69937;52.420;10.538;2023-05-10T04:06:28;5.07;;;3.67;;
80576;SDS011;69937;52.420;10.538;2023-05-10T04:11:29;5.95;;;4.43;;
80576;SDS011;69937;52.420;10.538;2023-05-10T04:16:30;6.53;;;3.95;;
80576;SDS011;69937;52.420;10.538;2023-05-10T04:21:30;7.00;;;3.97;;
80576;SDS011;69937;52.420;10.538;2023-05-10T04:26:31;5.68;;;5.10;;
80576;SDS011;69937;52.420;10.538;2023-05-10T04:31:32;5.90;;;3.83;;
80576;SDS011;69937;52.420;10.538;2023-05-10T04:36:32;5.82;;;4.15;;
80576;SDS011;69937;52.420;10.538;2023-05-10T04:41:35;4.72;;;3.80;;
80576;SDS011;69937;52.420;10.538;2023-05-10T04:46:37;8.25;;;3.65;;
80576;SDS011;69937;52.420;10.538;2023-05-10T04:51:37;5.53;;;4.15;;
80576;SDS011;69937;52.420;10.538;2023-05-10T04:56:38;7.43;;;4.35;;
80576;SDS011;69937;52.420;10.538;2023-05-10T05:01:39;8.70;;;3.83;;
80576;SDS011;69937;52.420;10.538;2023-05-10T05:06:39;10.68;;;4.20;;
80576;SDS011;69937;52.420;10.538;2023-05-10T05:11:40;6.07;;;4.15;;
80576;SDS011;69937;52.420;10.538;2023-05-10T05:16:40;5.50;;;4.03;;
80576;SDS011;69937;52.420;10.538;2023-05-10T05:21:41;5.45;;;3.72;;
80576;SDS011;69937;52.420;10.538;2023-05-10T05:26:41;4.85;;;3.47;;
80576;SDS011;69937;52.420;10.538;2023-05-10T05:31:42;11.98;;;4.57;;
80576;SDS011;69937;52.420;10.538;2023-05-10T05:36:42;5.10;;;4.15;;
80576;SDS011;69937;52.420;10.538;2023-05-10T05:41:43;5.22;;;3.90;;
80576;SDS011;69937;52.420;10.538;2023-05-10T05:46:43;7.07;;;3.70;;
80576;SDS011;69937;52.420;10.538;2023-05-10T05:51:44;5.15;;;4.00;;
80576;SDS011;69937;52.420;10.538;2023-05-10T05:56:45;5.50;;;4.95;;
80576;SDS011;69937;52.420;10.538;2023-05-10T06:01:45;6.38;;;3.90;;
80576;SDS011;69937;52.420;10.538;2023-05-10T06:06:46;4.47;;;3.50;;
80576;SDS011;69937;52.420;10.538;2023-05-10T06:11:46;4.63;;;3.67;;
80576;SDS011;69937;52.420;10.538;2023-05-10T06:16:47;8.60;;;4.07;;
80576;SDS011;69937;52.420;10.538;2023-05-10T06:21:47;6.47;;;3.95;;
80576;SDS011;69937;52.420;10.538;2023-05-10T06:26:48;5.78;;;3.85;;
80576;SDS011;69937;52.420;10.538;2023-05-10T06:31:49;7.40;;;3.72;;
80576;SDS011;69937;52.420;10.538;2023-05-10T06:36:50;5.35;;;3.88;;
80576;SDS011;69937;52.420;10.538;2023-05-10T06:41:51;6.25;;;4.82;;
80576;SDS011;69937;52.420;10.538;2023-05-10T06:46:52;7.53;;;3.85;;
80576;SDS011;69937;52.420;10.538;2023-05-10T06:51:53;8.10;;;3.90;;
80576;SDS011;69937;52.420;10.538;2023-05-10T06:56:55;5.03;;;3.90;;
80576;SDS011;69937;52.420;10.538;2023-05-10T07:01:56;6.60;;;4.25;;
80576;SDS011;69937;52.420;10.538;2023-05-10T07:06:56;10.23;;;4.40;;
80576;SDS011;69937;52.420;10.538;2023-05-10T07:11:57;5.13;;;4.25;;
80576;SDS011;69937;52.420;10.538;2023-05-10T07:16:58;5.93;;;3.85;;
80576;SDS011;69937;52.420;10.538;2023-05-10T07:21:58;6.03;;;4.40;;
80576;SDS011;69937;52.420;10.538;2023-05-10T07:26:59;6.63;;;4.78;;
80576;SDS011;69937;52.420;10.538;2023-05-10T07:32:00;6.82;;;5.10;;
80576;SDS011;69937;52.420;10.538;2023-05-10T07:37:01;8.82;;;4.38;;
80576;SDS011;69937;52.420;10.538;2023-05-10T07:42:01;8.18;;;4.78;;
80576;SDS011;69937;52.420;10.538;2023-05-10T07:47:02;10.25;;;5.18;;
80576;SDS011;69937;52.420;10.538;2023-05-10T07:52:03;7.53;;;6.00;;
80576;SDS011;69937;52.420;10.538;2023-05-10T07:57:03;7.53;;;4.85;;
80576;SDS011;69937;52.420;10.538;2023-05-10T08:02:04;6.35;;;5.05;;
80576;SDS011;69937;52.420;10.538;2023-05-10T08:07:05;8.77;;;5.53;;
80576;SDS011;69937;52.420;10.538;2023-05-10T08:12:06;8.52;;;4.82;;
80576;SDS011;69937;52.420;10.538;2023-05-10T08:17:07;9.68;;;5.18;;
80576;SDS011;69937;52.420;10.538;2023-05-10T08:22:07;9.02;;;5.20;;
80576;SDS011;69937;52.420;10.538;2023-05-10T08:27:08;6.72;;;4.93;;
80576;SDS011;69937;52.420;10.538;2023-05-10T08:32:08;10.48;;;5.95;;
80576;SDS011;69937;52.420;10.538;2023-05-10T08:37:09;9.95;;;5.90;;
80576;SDS011;69937;52.420;10.538;2023-05-10T08:42:12;7.95;;;7.15;;
80576;SDS011;69937;52.420;10.538;2023-05-10T08:47:18;7.70;;;5.30;;
80576;SDS011;69937;52.420;10.538;2023-05-10T08:52:19;6.70;;;4.72;;
80576;SDS011;69937;52.420;10.538;2023-05-10T08:57:21;6.20;;;4.65;;
80576;SDS011;69937;52.420;10.538;2023-05-10T09:02:22;9.65;;;5.30;;
80576;SDS011;69937;52.420;10.538;2023-05-10T09:07:23;9.18;;;5.05;;
80576;SDS011;69937;52.420;10.538;2023-05-10T09:12:24;10.25;;;5.78;;
80576;SDS011;69937;52.420;10.538;2023-05-10T09:17:24;9.40;;;5.95;;
80576;SDS011;69937;52.420;10.538;2023-05-10T09:22:25;8.55;;;6.05;;
80576;SDS011;69937;52.420;10.538;2023-05-10T09:27:26;9.30;;;6.07;;
80576;SDS011;69937;52.420;10.538;2023-05-10T09:32:35;10.55;;;6.10;;
80576;SDS011;69937;52.420;10.538;2023-05-10T09:37:40;7.88;;;5.43;;
80576;SDS011;69937;52.420;10.538;2023-05-10T09:42:43;10.48;;;6.07;;
80576;SDS011;69937;52.420;10.538;2023-05-10T09:47:54;8.80;;;5.88;;
80576;SDS011;69937;52.420;10.538;2023-05-10T09:52:56;11.32;;;7.03;;
80576;SDS011;69937;52.420;10.538;2023-05-10T09:57:59;9.23;;;6.38;;
80576;SDS011;69937;52.420;10.538;2023-05-10T10:03:00;12.95;;;7.43;;
80576;SDS011;69937;52.420;10.538;2023-05-10T10:08:03;9.85;;;6.20;;
80576;SDS011;69937;52.420;10.538;2023-05-10T10:13:04;8.57;;;6.53;;
80576;SDS011;69937;52.420;10.538;2023-05-10T10:18:05;8.50;;;5.53;;
80576;SDS011;69937;52.420;10.538;2023-05-10T10:23:07;4.50;;;4.07;;
80576;SDS011;69937;52.420;10.538;2023-05-10T10:28:31;3.55;;;2.63;;
80576;SDS011;69937;52.420;10.538;2023-05-10T10:34:00;4.50;;;2.40;;
80576;SDS011;69937;52.420;10.538;2023-05-10T10:39:08;3.75;;;2.50;;
80576;SDS011;69937;52.420;10.538;2023-05-10T10:44:22;3.08;;;2.50;;
80576;SDS011;69937;52.420;10.538;2023-05-10T10:49:26;2.72;;;2.22;;
80576;SDS011;69937;52.420;10.538;2023-05-10T10:54:27;2.47;;;1.63;;
80576;SDS011;69937;52.420;10.538;2023-05-10T10:59:28;5.05;;;1.45;;
80576;SDS011;69937;52.420;10.538;2023-05-10T11:04:28;2.60;;;1.70;;
80576;SDS011;69937;52.420;10.538;2023-05-10T11:09:42;2.55;;;1.55;;
80576;SDS011;69937;52.420;10.538;2023-05-10T11:14:43;2.80;;;1.15;;
80576;SDS011;69937;52.420;10.538;2023-05-10T11:20:06;1.35;;;1.17;;
80576;SDS011;69937;52.420;10.538;2023-05-10T11:25:10;1.25;;;0.90;;
80576;SDS011;69937;52.420;10.538;2023-05-10T11:30:11;1.42;;;1.23;;
80576;SDS011;69937;52.420;10.538;2023-05-10T11:35:12;2.55;;;2.35;;
80576;SDS011;69937;52.420;10.538;2023-05-10T11:40:12;2.25;;;1.95;;
80576;SDS011;69937;52.420;10.538;2023-05-10T11:45:14;6.28;;;2.17;;
80576;SDS011;69937;52.420;10.538;2023-05-10T11:50:15;3.30;;;2.70;;
80576;SDS011;69937;52.420;10.538;2023-05-10T11:55:16;4.32;;;3.92;;
80576;SDS011;69937;52.420;10.538;2023-05-10T12:00:17;2.53;;;2.33;;
80576;SDS011;69937;52.420;10.538;2023-05-10T12:05:18;4.05;;;2.83;;
80576;SDS011;69937;52.420;10.538;2023-05-10T12:10:24;3.42;;;3.08;;
80576;SDS011;69937;52.420;10.538;2023-05-10T12:15:26;3.00;;;2.70;;
80576;SDS011;69937;52.420;10.538;2023-05-10T12:20:28;4.18;;;2.88;;
80576;SDS011;69937;52.420;10.538;2023-05-10T12:25:35;3.05;;;2.33;;
80576;SDS011;69937;52.420;10.538;2023-05-10T12:30:37;4.03;;;3.03;;
80576;SDS011;69937;52.420;10.538;2023-05-10T12:36:11;3.85;;;2.67;;
80576;SDS011;69937;52.420;10.538;2023-05-10T12:41:06;3.70;;;2.72;;
80576;SDS011;69937;52.420;10.538;2023-05-10T12:46:12;3.50;;;2.90;;
80576;SDS011;69937;52.420;10.538;2023-05-10T12:51:14;3.90;;;3.15;;
80576;SDS011;69937;52.420;10.538;2023-05-10T12:56:17;3.88;;;3.47;;
80576;SDS011;69937;52.420;10.538;2023-05-10T13:01:17;3.00;;;2.50;;
80576;SDS011;69937;52.420;10.538;2023-05-10T13:06:18;2.75;;;2.42;;
80576;SDS011;69937;52.420;10.538;2023-05-10T13:11:18;3.50;;;2.50;;
80576;SDS011;69937;52.420;10.538;2023-05-10T13:16:19;3.53;;;2.90;;
80576;SDS011;69937;52.420;10.538;2023-05-10T13:21:20;5.93;;;3.78;;
80576;SDS011;69937;52.420;10.538;2023-05-10T13:26:21;3.75;;;2.88;;
80576;SDS011;69937;52.420;10.538;2023-05-10T13:31:21;3.97;;;2.63;;
80576;SDS011;69937;52.420;10.538;2023-05-10T13:36:22;4.82;;;2.83;;
80576;SDS011;69937;52.420;10.538;2023-05-10T13:41:22;4.45;;;2.65;;
80576;SDS011;69937;52.420;10.538;2023-05-10T13:46:23;3.50;;;3.17;;
80576;SDS011;69937;52.420;10.538;2023-05-10T13:51:24;2.97;;;2.20;;
80576;SDS011;69937;52.420;10.538;2023-05-10T13:56:24;3.65;;;2.38;;
80576;SDS011;69937;52.420;10.538;2023-05-10T14:01:25;4.47;;;3.03;;
80576;SDS011;69937;52.420;10.538;2023-05-10T14:06:26;5.60;;;3.33;;
80576;SDS011;69937;52.420;10.538;2023-05-10T14:11:27;4.60;;;3.33;;
80576;SDS011;69937;52.420;10.538;2023-05-10T14:16:28;6.13;;;3.47;;
80576;SDS011;69937;52.420;10.538;2023-05-10T14:21:28;5.60;;;3.38;;
80576;SDS011;69937;52.420;10.538;2023-05-10T14:26:32;4.93;;;3.75;;
80576;SDS011;69937;52.420;10.538;2023-05-10T14:31:33;4.35;;;3.30;;
80576;SDS011;69937;52.420;10.538;2023-05-10T14:36:33;3.88;;;3.13;;
80576;SDS011;69937;52.420;10.538;2023-05-10T14:41:34;5.80;;;2.97;;
80576;SDS011;69937;52.420;10.538;2023-05-10T14:46:35;4.75;;;2.67;;
80576;SDS011;69937;52.420;10.538;2023-05-10T14:51:36;3.28;;;2.63;;
80576;SDS011;69937;52.420;10.538;2023-05-10T14:56:36;5.05;;;2.97;;
80576;SDS011;69937;52.420;10.538;2023-05-10T15:01:37;4.50;;;3.42;;
80576;SDS011;69937;52.420;10.538;2023-05-10T15:06:41;5.57;;;2.47;;
80576;SDS011;69937;52.420;10.538;2023-05-10T15:11:42;3.00;;;2.20;;
80576;SDS011;69937;52.420;10.538;2023-05-10T15:16:45;3.95;;;2.13;;
80576;SDS011;69937;52.420;10.538;2023-05-10T15:21:46;3.13;;;1.75;;
80576;SDS011;69937;52.420;10.538;2023-05-10T15:26:47;2.85;;;1.90;;
80576;SDS011;69937;52.420;10.538;2023-05-10T15:31:48;2.72;;;1.80;;
80576;SDS011;69937;52.420;10.538;2023-05-10T15:36:50;3.33;;;2.17;;
80576;SDS011;69937;52.420;10.538;2023-05-10T15:41:50;3.40;;;1.60;;
80576;SDS011;69937;52.420;10.538;2023-05-10T15:46:51;3.25;;;2.00;;
80576;SDS011;69937;52.420;10.538;2023-05-10T15:51:51;3.10;;;1.23;;
80576;SDS011;69937;52.420;10.538;2023-05-10T15:56:52;3.05;;;1.40;;
80576;SDS011;69937;52.420;10.538;2023-05-10T16:01:53;3.28;;;1.50;;
80576;SDS011;69937;52.420;10.538;2023-05-10T16:06:54;3.45;;;1.55;;
80576;SDS011;69937;52.420;10.538;2023-05-10T16:11:55;3.10;;;1.05;;
80576;SDS011;69937;52.420;10.538;2023-05-10T16:16:55;3.22;;;1.15;;
80576;SDS011;69937;52.420;10.538;2023-05-10T16:21:56;2.45;;;1.25;;
80576;SDS011;69937;52.420;10.538;2023-05-10T16:26:56;3.42;;;2.42;;
80576;SDS011;69937;52.420;10.538;2023-05-10T16:31:57;6.75;;;2.88;;
80576;SDS011;69937;52.420;10.538;2023-05-10T16:36:57;7.65;;;2.72;;
80576;SDS011;69937;52.420;10.538;2023-05-10T16:41:58;4.68;;;2.53;;
80576;SDS011;69937;52.420;10.538;2023-05-10T16:46:59;5.90;;;3.05;;
80576;SDS011;69937;52.420;10.538;2023-05-10T16:51:59;5.40;;;2.67;;
80576;SDS011;69937;52.420;10.538;2023-05-10T16:57:00;5.50;;;2.90;;
80576;SDS011;69937;52.420;10.538;2023-05-10T17:02:01;4.28;;;3.50;;
80576;SDS011;69937;52.420;10.538;2023-05-10T17:07:01;7.82;;;3.25;;
80576;SDS011;69937;52.420;10.538;2023-05-10T17:12:02;6.20;;;4.30;;
80576;SDS011;69937;52.420;10.538;2023-05-10T17:17:03;6.45;;;3.10;;
80576;SDS011;69937;52.420;10.538;2023-05-10T17:22:03;3.97;;;2.75;;
80576;SDS011;69937;52.420;10.538;2023-05-10T17:27:04;5.00;;;3.92;;
80576;SDS011;69937;52.420;10.538;2023-05-10T17:32:05;5.43;;;3.58;;
80576;SDS011;69937;52.420;10.538;2023-05-10T17:37:08;8.13;;;3.92;;
80576;SDS011;69937;52.420;10.538;2023-05-10T17:42:08;4.75;;;3.63;;
80576;SDS011;69937;52.420;10.538;2023-05-10T17:47:09;5.07;;;3.42;;
80576;SDS011;69937;52.420;10.538;2023-05-10T17:52:09;6.78;;;4.05;;
80576;SDS011;69937;52.420;10.538;2023-05-10T17:57:10;5.68;;;3.63;;
80576;SDS011;69937;52.420;10.538;2023-05-10T18:02:11;6.07;;;3.53;;
80576;SDS011;69937;52.420;10.538;2023-05-10T18:07:12;5.35;;;3.22;;
80576;SDS011;69937;52.420;10.538;2023-05-10T18:12:13;5.85;;;4.00;;
80576;SDS011;69937;52.420;10.538;2023-05-10T18:17:13;7.10;;;4.22;;
80576;SDS011;69937;52.420;10.538;2023-05-10T18:22:14;8.23;;;3.88;;
80576;SDS011;69937;52.420;10.538;2023-05-10T18:27:14;5.35;;;4.03;;
80576;SDS011;69937;52.420;10.538;2023-05-10T18:32:15;9.93;;;4.72;;
80576;SDS011;69937;52.420;10.538;2023-05-10T18:37:16;6.57;;;4.80;;
80576;SDS011;69937;52.420;10.538;2023-05-10T18:42:17;10.40;;;5.03;;
80576;SDS011;69937;52.420;10.538;2023-05-10T18:47:19;8.13;;;4.90;;
80576;SDS011;69937;52.420;10.538;2023-05-10T18:52:20;8.30;;;4.97;;
80576;SDS011;69937;52.420;10.538;2023-05-10T18:57:20;9.52;;;5.65;;
80576;SDS011;69937;52.420;10.538;2023-05-10T19:02:21;6.20;;;3.83;;
80576;SDS011;69937;52.420;10.538;2023-05-10T19:07:24;8.07;;;4.80;;
80576;SDS011;69937;52.420;10.538;2023-05-10T19:12:24;7.50;;;4.55;;
80576;SDS011;69937;52.420;10.538;2023-05-10T19:17:25;9.32;;;4.93;;
80576;SDS011;69937;52.420;10.538;2023-05-10T19:22:25;10.13;;;4.30;;
80576;SDS011;69937;52.420;10.538;2023-05-10T19:27:26;8.82;;;4.95;;
80576;SDS011;69937;52.420;10.538;2023-05-10T19:32:35;7.43;;;4.55;;
80576;SDS011;69937;52.420;10.538;2023-05-10T19:37:38;7.25;;;4.35;;
80576;SDS011;69937;52.420;10.538;2023-05-10T19:42:46;8.60;;;4.93;;
80576;SDS011;69937;52.420;10.538;2023-05-10T19:47:46;8.23;;;4.78;;
80576;SDS011;69937;52.420;10.538;2023-05-10T19:52:48;9.57;;;5.28;;
80576;SDS011;69937;52.420;10.538;2023-05-10T19:57:49;8.68;;;5.43;;
80576;SDS011;69937;52.420;10.538;2023-05-10T20:02:52;9.55;;;5.32;;
80576;SDS011;69937;52.420;10.538;2023-05-10T20:07:52;7.90;;;5.50;;
80576;SDS011;69937;52.420;10.538;2023-05-10T20:12:54;11.98;;;6.15;;
80576;SDS011;69937;52.420;10.538;2023-05-10T20:17:58;8.65;;;5.00;;
80576;SDS011;69937;52.420;10.538;2023-05-10T20:22:59;8.00;;;5.00;;
80576;SDS011;69937;52.420;10.538;2023-05-10T20:28:01;6.95;;;5.15;;
80576;SDS011;69937;52.420;10.538;2023-05-10T20:33:02;9.93;;;6.82;;
80576;SDS011;69937;52.420;10.538;2023-05-10T20:38:03;12.45;;;5.45;;
80576;SDS011;69937;52.420;10.538;2023-05-10T20:43:10;7.80;;;5.60;;
80576;SDS011;69937;52.420;10.538;2023-05-10T20:48:10;10.95;;;5.65;;
80576;SDS011;69937;52.420;10.538;2023-05-10T20:53:12;10.55;;;5.80;;
80576;SDS011;69937;52.420;10.538;2023-05-10T20:58:13;12.15;;;6.10;;
80576;SDS011;69937;52.420;10.538;2023-05-10T21:03:14;11.70;;;6.13;;
80576;SDS011;69937;52.420;10.538;2023-05-10T21:08:16;10.25;;;5.97;;
80576;SDS011;69937;52.420;10.538;2023-05-10T21:13:20;10.10;;;5.82;;
80576;SDS011;69937;52.420;10.538;2023-05-10T21:18:21;6.90;;;5.63;;
80576;SDS011;69937;52.420;10.538;2023-05-10T21:23:21;8.10;;;5.15;;
80576;SDS011;69937;52.420;10.538;2023-05-10T21:28:23;8.75;;;6.05;;
80576;SDS011;69937;52.420;10.538;2023-05-10T21:33:25;11.93;;;5.95;;
80576;SDS011;69937;52.420;10.538;2023-05-10T21:38:26;7.32;;;4.85;;
80576;SDS011;69937;52.420;10.538;2023-05-10T21:43:29;8.38;;;4.93;;
80576;SDS011;69937;52.420;10.538;2023-05-10T21:48:31;10.77;;;5.57;;
80576;SDS011;69937;52.420;10.538;2023-05-10T21:53:35;10.80;;;6.38;;
80576;SDS011;69937;52.420;10.538;2023-05-10T21:58:38;9.35;;;5.97;;
80576;SDS011;69937;52.420;10.538;2023-05-10T22:03:39;11.50;;;6.75;;
80576;SDS011;69937;52.420;10.538;2023-05-10T22:08:41;8.75;;;6.10;;
80576;SDS011;69937;52.420;10.538;2023-05-10T22:13:42;8.70;;;6.80;;
80576;SDS011;69937;52.420;10.538;2023-05-10T22:18:46;9.45;;;6.47;;
80576;SDS011;69937;52.420;10.538;2023-05-10T22:23:47;10.57;;;5.80;;
80576;SDS011;69937;52.420;10.538;2023-05-10T22:28:47;7.10;;;5.47;;
80576;SDS011;69937;52.420;10.538;2023-05-10T22:33:48;7.75;;;5.25;;
80576;SDS011;69937;52.420;10.538;2023-05-10T22:38:49;7.18;;;4.88;;
80576;SDS011;69937;52.420;10.538;2023-05-10T22:43:49;10.75;;;5.70;;
80576;SDS011;69937;52.420;10.538;2023-05-10T22:48:50;6.93;;;5.05;;
80576;SDS011;69937;52.420;10.538;2023-05-10T22:53:52;8.30;;;5.50;;
80576;SDS011;69937;52.420;10.538;2023-05-10T22:58:53;8.70;;;6.40;;
80576;SDS011;69937;52.420;10.538;2023-05-10T23:03:54;9.98;;;6.10;;
80576;SDS011;69937;52.420;10.538;2023-05-10T23:08:55;10.13;;;5.80;;
80576;SDS011;69937;52.420;10.538;2023-05-10T23:13:56;9.10;;;6.22;;
80576;SDS011;69937;52.420;10.538;2023-05-10T23:18:56;11.32;;;5.75;;
80576;SDS011;69937;52.420;10.538;2023-05-10T23:23:58;10.48;;;6.00;;
80576;SDS011;69937;52.420;10.538;2023-05-10T23:28:59;9.35;;;5.95;;
80576;SDS011;69937;52.420;10.538;2023-05-10T23:34:01;13.32;;;6.38;;
80576;SDS011;69937;52.420;10.538;2023-05-10T23:39:02;9.63;;;6.68;;
80576;SDS011;69937;52.420;10.538;2023-05-10T23:44:05;12.18;;;7.15;;
80576;SDS011;69937;52.420;10.538;2023-05-10T23:49:06;9.55;;;5.90;;
80576;SDS011;69937;52.420;10.538;2023-05-10T23:54:10;10.82;;;6.00;;
80576;SDS011;69937;52.420;10.538;2023-05-10T23:59:13;10.95;;;5.95;;
